sensor_id;sensor_type;location;lat;lon;timestamp;P1;durP1;ratioP1;P2;durP2;ratioP2
9392;SDS011;4736;52.508;13.422;2023-02-15T00:02:53;33.07;;;22.20;;
9392;SDS011;4736;52.508;13.422;2023-02-15T00:05:56;32.17;;;24.00;;
9392;SDS011;4736;52.508;13.422;2023-02-15T00:09:00;30.70;;;22.63;;
9392;SDS011;4736;52.508;13.422;2023-02-15T00:12:06;35.37;;;24.90;;
9392;SDS011;4736;52.508;13.422;2023-02-15T00:15:12;31.73;;;22.30;;
9392;SDS011;4736;52.508;13.422;2023-02-15T00:18:16;31.23;;;22.03;;
9392;SDS011;4736;52.508;13.422;2023-02-15T00:21:19;33.93;;;21.77;;
9392;SDS011;4736;52.508;13.422;2023-02-15T00:24:23;31.67;;;22.50;;
9392;SDS011;4736;52.508;13.422;2023-02-15T00:27:27;27.73;;;20.57;;
9392;SDS011;4736;52.508;13.422;2023-02-15T00:30:31;29.77;;;21.67;;
9392;SDS011;4736;52.508;13.422;2023-02-15T00:33:37;30.40;;;21.87;;
9392;SDS011;4736;52.508;13.422;2023-02-15T00:36:41;39.93;;;27.47;;
9392;SDS011;4736;52.508;13.422;2023-02-15T00:39:45;38.30;;;27.87;;
9392;SDS011;4736;52.508;13.422;2023-02-15T00:42:50;41.37;;;27.57;;
9392;SDS011;4736;52.508;13.422;2023-02-15T00:45:53;35.17;;;25.23;;
9392;SDS011;4736;52.508;13.422;2023-02-15T00:48:57;39.90;;;25.83;;
9392;SDS011;4736;52.508;13.422;2023-02-15T00:52:00;35.27;;;23.30;;
9392;SDS011;4736;52.508;13.422;2023-02-15T00:55:04;31.03;;;21.93;;
9392;SDS011;4736;52.508;13.422;2023-02-15T00:58:09;28.37;;;20.40;;
9392;SDS011;4736;52.508;13.422;2023-02-15T01:01:14;33.57;;;23.47;;
9392;SDS011;4736;52.508;13.422;2023-02-15T01:04:19;33.93;;;21.97;;
9392;SDS011;4736;52.508;13.422;2023-02-15T01:07:22;28.30;;;20.67;;
9392;SDS011;4736;52.508;13.422;2023-02-15T01:10:26;31.50;;;21.97;;
9392;SDS011;4736;52.508;13.422;2023-02-15T01:13:31;30.27;;;20.87;;
9392;SDS011;4736;52.508;13.422;2023-02-15T01:16:35;28.10;;;20.23;;
9392;SDS011;4736;52.508;13.422;2023-02-15T01:19:39;31.57;;;22.03;;
9392;SDS011;4736;52.508;13.422;2023-02-15T01:22:42;31.40;;;21.60;;
9392;SDS011;4736;52.508;13.422;2023-02-15T01:25:45;28.23;;;20.90;;
9392;SDS011;4736;52.508;13.422;2023-02-15T01:28:50;36.17;;;25.47;;
9392;SDS011;4736;52.508;13.422;2023-02-15T01:31:54;32.00;;;22.23;;
9392;SDS011;4736;52.508;13.422;2023-02-15T01:34:57;30.27;;;21.60;;
9392;SDS011;4736;52.508;13.422;2023-02-15T01:38:00;34.60;;;23.50;;
9392;SDS011;4736;52.508;13.422;2023-02-15T01:41:04;30.13;;;21.03;;
9392;SDS011;4736;52.508;13.422;2023-02-15T01:44:47;31.13;;;22.00;;
9392;SDS011;4736;52.508;13.422;2023-02-15T01:47:54;34.33;;;23.93;;
9392;SDS011;4736;52.508;13.422;2023-02-15T01:51:03;39.00;;;24.50;;
9392;SDS011;4736;52.508;13.422;2023-02-15T01:54:11;34.83;;;24.97;;
9392;SDS011;4736;52.508;13.422;2023-02-15T01:57:20;37.57;;;23.13;;
9392;SDS011;4736;52.508;13.422;2023-02-15T02:00:28;40.03;;;25.40;;
9392;SDS011;4736;52.508;13.422;2023-02-15T02:03:36;38.17;;;24.63;;
9392;SDS011;4736;52.508;13.422;2023-02-15T02:06:47;37.07;;;25.50;;
9392;SDS011;4736;52.508;13.422;2023-02-15T02:09:53;35.87;;;23.60;;
9392;SDS011;4736;52.508;13.422;2023-02-15T02:12:57;42.63;;;25.90;;
9392;SDS011;4736;52.508;13.422;2023-02-15T02:16:08;39.73;;;25.80;;
9392;SDS011;4736;52.508;13.422;2023-02-15T02:23:05;43.27;;;27.00;;
9392;SDS011;4736;52.508;13.422;2023-02-15T02:26:30;35.23;;;24.13;;
9392;SDS011;4736;52.508;13.422;2023-02-15T02:30:20;47.03;;;31.20;;
9392;SDS011;4736;52.508;13.422;2023-02-15T02:33:44;46.17;;;28.00;;
9392;SDS011;4736;52.508;13.422;2023-02-15T02:37:02;38.17;;;25.50;;
9392;SDS011;4736;52.508;13.422;2023-02-15T02:40:13;50.40;;;31.97;;
9392;SDS011;4736;52.508;13.422;2023-02-15T02:43:28;42.77;;;28.53;;
9392;SDS011;4736;52.508;13.422;2023-02-15T02:46:37;46.67;;;29.20;;
9392;SDS011;4736;52.508;13.422;2023-02-15T02:49:51;50.23;;;31.30;;
9392;SDS011;4736;52.508;13.422;2023-02-15T02:53:01;58.87;;;35.07;;
9392;SDS011;4736;52.508;13.422;2023-02-15T02:56:05;54.13;;;32.97;;
9392;SDS011;4736;52.508;13.422;2023-02-15T02:59:17;54.07;;;30.00;;
9392;SDS011;4736;52.508;13.422;2023-02-15T03:02:25;60.40;;;34.03;;
9392;SDS011;4736;52.508;13.422;2023-02-15T03:05:37;66.27;;;37.10;;
9392;SDS011;4736;52.508;13.422;2023-02-15T03:08:45;57.17;;;32.20;;
9392;SDS011;4736;52.508;13.422;2023-02-15T03:11:55;68.60;;;37.17;;
9392;SDS011;4736;52.508;13.422;2023-02-15T03:15:01;58.90;;;34.70;;
9392;SDS011;4736;52.508;13.422;2023-02-15T03:18:09;66.37;;;36.77;;
9392;SDS011;4736;52.508;13.422;2023-02-15T03:21:27;72.83;;;40.07;;
9392;SDS011;4736;52.508;13.422;2023-02-15T03:24:41;54.23;;;32.80;;
9392;SDS011;4736;52.508;13.422;2023-02-15T03:27:49;78.70;;;38.93;;
9392;SDS011;4736;52.508;13.422;2023-02-15T03:31:06;72.90;;;38.90;;
9392;SDS011;4736;52.508;13.422;2023-02-15T03:34:13;59.93;;;32.97;;
9392;SDS011;4736;52.508;13.422;2023-02-15T03:37:22;68.77;;;38.27;;
9392;SDS011;4736;52.508;13.422;2023-02-15T03:40:34;69.83;;;37.63;;
9392;SDS011;4736;52.508;13.422;2023-02-15T03:43:57;67.00;;;37.60;;
9392;SDS011;4736;52.508;13.422;2023-02-15T03:47:06;66.07;;;36.67;;
9392;SDS011;4736;52.508;13.422;2023-02-15T03:50:15;65.97;;;36.17;;
9392;SDS011;4736;52.508;13.422;2023-02-15T03:53:43;63.17;;;34.27;;
9392;SDS011;4736;52.508;13.422;2023-02-15T03:56:54;64.70;;;35.37;;
9392;SDS011;4736;52.508;13.422;2023-02-15T04:00:12;71.63;;;36.83;;
9392;SDS011;4736;52.508;13.422;2023-02-15T04:03:37;67.63;;;36.40;;
9392;SDS011;4736;52.508;13.422;2023-02-15T04:06:44;65.23;;;35.07;;
9392;SDS011;4736;52.508;13.422;2023-02-15T04:09:49;65.30;;;36.63;;
9392;SDS011;4736;52.508;13.422;2023-02-15T04:13:10;62.67;;;35.43;;
9392;SDS011;4736;52.508;13.422;2023-02-15T04:16:16;58.63;;;32.23;;
9392;SDS011;4736;52.508;13.422;2023-02-15T04:19:19;64.37;;;35.93;;
9392;SDS011;4736;52.508;13.422;2023-02-15T04:22:40;62.03;;;35.07;;
9392;SDS011;4736;52.508;13.422;2023-02-15T04:26:03;60.67;;;34.20;;
9392;SDS011;4736;52.508;13.422;2023-02-15T04:29:07;59.40;;;34.60;;
9392;SDS011;4736;52.508;13.422;2023-02-15T04:32:13;68.13;;;35.57;;
9392;SDS011;4736;52.508;13.422;2023-02-15T04:35:17;61.40;;;35.00;;
9392;SDS011;4736;52.508;13.422;2023-02-15T04:38:21;69.53;;;37.20;;
9392;SDS011;4736;52.508;13.422;2023-02-15T04:41:26;64.20;;;34.33;;
9392;SDS011;4736;52.508;13.422;2023-02-15T04:44:29;67.17;;;35.90;;
9392;SDS011;4736;52.508;13.422;2023-02-15T04:47:32;65.03;;;34.13;;
9392;SDS011;4736;52.508;13.422;2023-02-15T04:50:38;56.93;;;33.87;;
9392;SDS011;4736;52.508;13.422;2023-02-15T04:53:42;70.20;;;35.17;;
9392;SDS011;4736;52.508;13.422;2023-02-15T04:56:47;57.97;;;33.90;;
9392;SDS011;4736;52.508;13.422;2023-02-15T04:59:50;61.23;;;33.70;;
9392;SDS011;4736;52.508;13.422;2023-02-15T05:02:54;63.70;;;34.70;;
9392;SDS011;4736;52.508;13.422;2023-02-15T05:06:03;60.67;;;32.80;;
9392;SDS011;4736;52.508;13.422;2023-02-15T05:09:10;59.37;;;33.50;;
9392;SDS011;4736;52.508;13.422;2023-02-15T05:12:16;64.97;;;33.47;;
9392;SDS011;4736;52.508;13.422;2023-02-15T05:15:22;64.80;;;34.70;;
9392;SDS011;4736;52.508;13.422;2023-02-15T05:18:26;63.67;;;33.07;;
9392;SDS011;4736;52.508;13.422;2023-02-15T05:21:30;64.00;;;35.40;;
9392;SDS011;4736;52.508;13.422;2023-02-15T05:24:45;63.20;;;34.53;;
9392;SDS011;4736;52.508;13.422;2023-02-15T05:28:24;65.80;;;33.57;;
9392;SDS011;4736;52.508;13.422;2023-02-15T05:31:52;66.87;;;34.40;;
9392;SDS011;4736;52.508;13.422;2023-02-15T05:35:00;70.33;;;34.20;;
9392;SDS011;4736;52.508;13.422;2023-02-15T05:38:07;64.47;;;33.47;;
9392;SDS011;4736;52.508;13.422;2023-02-15T05:41:45;67.00;;;35.17;;
9392;SDS011;4736;52.508;13.422;2023-02-15T05:45:14;66.60;;;33.27;;
9392;SDS011;4736;52.508;13.422;2023-02-15T05:48:19;70.93;;;35.93;;
9392;SDS011;4736;52.508;13.422;2023-02-15T05:51:26;73.07;;;35.47;;
9392;SDS011;4736;52.508;13.422;2023-02-15T05:54:30;70.00;;;34.77;;
9392;SDS011;4736;52.508;13.422;2023-02-15T05:57:35;72.17;;;35.03;;
9392;SDS011;4736;52.508;13.422;2023-02-15T06:00:40;75.33;;;37.63;;
9392;SDS011;4736;52.508;13.422;2023-02-15T06:03:43;72.40;;;37.43;;
9392;SDS011;4736;52.508;13.422;2023-02-15T06:06:47;76.80;;;36.13;;
9392;SDS011;4736;52.508;13.422;2023-02-15T06:09:50;71.83;;;35.50;;
9392;SDS011;4736;52.508;13.422;2023-02-15T06:12:53;70.77;;;36.20;;
9392;SDS011;4736;52.508;13.422;2023-02-15T06:15:57;75.37;;;34.23;;
9392;SDS011;4736;52.508;13.422;2023-02-15T06:19:02;70.83;;;35.27;;
9392;SDS011;4736;52.508;13.422;2023-02-15T06:22:05;77.93;;;37.70;;
9392;SDS011;4736;52.508;13.422;2023-02-15T06:25:08;73.47;;;35.37;;
9392;SDS011;4736;52.508;13.422;2023-02-15T06:28:12;75.43;;;37.93;;
9392;SDS011;4736;52.508;13.422;2023-02-15T06:31:17;72.10;;;35.80;;
9392;SDS011;4736;52.508;13.422;2023-02-15T06:34:20;82.93;;;37.70;;
9392;SDS011;4736;52.508;13.422;2023-02-15T06:37:23;83.57;;;38.17;;
9392;SDS011;4736;52.508;13.422;2023-02-15T06:40:26;79.90;;;37.43;;
9392;SDS011;4736;52.508;13.422;2023-02-15T06:43:29;91.13;;;38.40;;
9392;SDS011;4736;52.508;13.422;2023-02-15T06:46:34;110.03;;;43.23;;
9392;SDS011;4736;52.508;13.422;2023-02-15T06:49:37;119.97;;;41.97;;
9392;SDS011;4736;52.508;13.422;2023-02-15T06:52:40;78.00;;;35.27;;
9392;SDS011;4736;52.508;13.422;2023-02-15T06:55:43;126.73;;;41.27;;
9392;SDS011;4736;52.508;13.422;2023-02-15T06:58:46;85.93;;;38.93;;
9392;SDS011;4736;52.508;13.422;2023-02-15T07:01:54;118.10;;;40.43;;
9392;SDS011;4736;52.508;13.422;2023-02-15T07:04:57;85.87;;;38.50;;
9392;SDS011;4736;52.508;13.422;2023-02-15T07:08:00;88.83;;;40.13;;
9392;SDS011;4736;52.508;13.422;2023-02-15T07:11:04;84.30;;;38.43;;
9392;SDS011;4736;52.508;13.422;2023-02-15T07:14:24;110.80;;;40.53;;
9392;SDS011;4736;52.508;13.422;2023-02-15T07:17:30;60.17;;;30.70;;
9392;SDS011;4736;52.508;13.422;2023-02-15T07:20:36;97.83;;;39.43;;
9392;SDS011;4736;52.508;13.422;2023-02-15T07:23:42;69.77;;;34.70;;
9392;SDS011;4736;52.508;13.422;2023-02-15T07:26:45;85.90;;;38.43;;
9392;SDS011;4736;52.508;13.422;2023-02-15T07:29:48;97.97;;;38.57;;
9392;SDS011;4736;52.508;13.422;2023-02-15T07:32:55;126.17;;;40.77;;
9392;SDS011;4736;52.508;13.422;2023-02-15T07:36:16;71.60;;;34.33;;
9392;SDS011;4736;52.508;13.422;2023-02-15T07:39:19;80.60;;;38.00;;
9392;SDS011;4736;52.508;13.422;2023-02-15T07:42:23;88.77;;;39.17;;
9392;SDS011;4736;52.508;13.422;2023-02-15T07:45:26;77.10;;;35.17;;
9392;SDS011;4736;52.508;13.422;2023-02-15T07:48:30;80.87;;;36.20;;
9392;SDS011;4736;52.508;13.422;2023-02-15T07:51:34;69.30;;;36.40;;
9392;SDS011;4736;52.508;13.422;2023-02-15T07:54:37;82.77;;;38.03;;
9392;SDS011;4736;52.508;13.422;2023-02-15T07:57:41;85.60;;;39.90;;
9392;SDS011;4736;52.508;13.422;2023-02-15T08:00:46;74.03;;;36.77;;
9392;SDS011;4736;52.508;13.422;2023-02-15T08:04:07;84.57;;;39.67;;
9392;SDS011;4736;52.508;13.422;2023-02-15T08:07:12;71.03;;;34.17;;
9392;SDS011;4736;52.508;13.422;2023-02-15T08:10:15;77.53;;;37.30;;
9392;SDS011;4736;52.508;13.422;2023-02-15T08:13:39;81.93;;;38.27;;
9392;SDS011;4736;52.508;13.422;2023-02-15T08:16:55;74.23;;;34.93;;
9392;SDS011;4736;52.508;13.422;2023-02-15T08:20:05;78.73;;;37.57;;
9392;SDS011;4736;52.508;13.422;2023-02-15T08:23:09;78.80;;;37.47;;
9392;SDS011;4736;52.508;13.422;2023-02-15T08:26:13;89.10;;;38.30;;
9392;SDS011;4736;52.508;13.422;2023-02-15T08:29:18;81.60;;;37.33;;
9392;SDS011;4736;52.508;13.422;2023-02-15T08:32:23;89.33;;;40.43;;
9392;SDS011;4736;52.508;13.422;2023-02-15T08:35:28;89.27;;;39.13;;
9392;SDS011;4736;52.508;13.422;2023-02-15T08:38:31;74.67;;;35.30;;
9392;SDS011;4736;52.508;13.422;2023-02-15T08:41:35;87.93;;;38.00;;
9392;SDS011;4736;52.508;13.422;2023-02-15T08:44:39;79.60;;;35.60;;
9392;SDS011;4736;52.508;13.422;2023-02-15T08:47:42;75.73;;;37.40;;
9392;SDS011;4736;52.508;13.422;2023-02-15T08:50:46;69.53;;;35.50;;
9392;SDS011;4736;52.508;13.422;2023-02-15T08:53:50;75.40;;;35.73;;
9392;SDS011;4736;52.508;13.422;2023-02-15T08:56:54;72.17;;;34.90;;
9392;SDS011;4736;52.508;13.422;2023-02-15T08:59:57;65.10;;;34.67;;
9392;SDS011;4736;52.508;13.422;2023-02-15T09:03:00;69.37;;;33.83;;
9392;SDS011;4736;52.508;13.422;2023-02-15T09:06:05;65.73;;;33.97;;
9392;SDS011;4736;52.508;13.422;2023-02-15T09:09:08;64.27;;;33.30;;
9392;SDS011;4736;52.508;13.422;2023-02-15T09:12:12;68.70;;;34.87;;
9392;SDS011;4736;52.508;13.422;2023-02-15T09:15:16;55.73;;;30.50;;
9392;SDS011;4736;52.508;13.422;2023-02-15T09:18:19;64.87;;;34.30;;
9392;SDS011;4736;52.508;13.422;2023-02-15T09:21:25;67.67;;;35.67;;
9392;SDS011;4736;52.508;13.422;2023-02-15T09:24:31;65.90;;;34.43;;
9392;SDS011;4736;52.508;13.422;2023-02-15T09:27:34;58.23;;;33.80;;
9392;SDS011;4736;52.508;13.422;2023-02-15T09:30:39;55.43;;;30.87;;
9392;SDS011;4736;52.508;13.422;2023-02-15T09:33:43;55.93;;;33.00;;
9392;SDS011;4736;52.508;13.422;2023-02-15T09:36:48;50.23;;;30.83;;
9392;SDS011;4736;52.508;13.422;2023-02-15T09:39:52;56.80;;;31.50;;
9392;SDS011;4736;52.508;13.422;2023-02-15T09:43:02;50.10;;;30.23;;
9392;SDS011;4736;52.508;13.422;2023-02-15T09:46:27;50.83;;;30.63;;
9392;SDS011;4736;52.508;13.422;2023-02-15T09:49:47;49.03;;;29.77;;
9392;SDS011;4736;52.508;13.422;2023-02-15T09:53:01;50.87;;;31.03;;
9392;SDS011;4736;52.508;13.422;2023-02-15T09:56:18;44.50;;;28.27;;
9392;SDS011;4736;52.508;13.422;2023-02-15T09:59:33;42.90;;;27.87;;
9392;SDS011;4736;52.508;13.422;2023-02-15T10:02:48;40.70;;;25.97;;
9392;SDS011;4736;52.508;13.422;2023-02-15T10:06:22;36.50;;;26.07;;
9392;SDS011;4736;52.508;13.422;2023-02-15T10:09:51;41.53;;;26.00;;
9392;SDS011;4736;52.508;13.422;2023-02-15T10:13:08;44.20;;;28.40;;
9392;SDS011;4736;52.508;13.422;2023-02-15T10:16:22;45.90;;;28.43;;
9392;SDS011;4736;52.508;13.422;2023-02-15T10:19:34;41.23;;;26.87;;
9392;SDS011;4736;52.508;13.422;2023-02-15T10:22:48;39.27;;;25.83;;
9392;SDS011;4736;52.508;13.422;2023-02-15T10:26:03;38.23;;;26.70;;
9392;SDS011;4736;52.508;13.422;2023-02-15T10:29:18;42.67;;;28.13;;
9392;SDS011;4736;52.508;13.422;2023-02-15T10:32:31;39.30;;;25.73;;
9392;SDS011;4736;52.508;13.422;2023-02-15T10:35:41;39.03;;;26.43;;
9392;SDS011;4736;52.508;13.422;2023-02-15T10:38:57;38.13;;;26.00;;
9392;SDS011;4736;52.508;13.422;2023-02-15T10:42:07;35.60;;;24.70;;
9392;SDS011;4736;52.508;13.422;2023-02-15T10:45:20;40.70;;;27.20;;
9392;SDS011;4736;52.508;13.422;2023-02-15T10:52:09;38.90;;;26.37;;
9392;SDS011;4736;52.508;13.422;2023-02-15T10:55:24;42.53;;;25.90;;
9392;SDS011;4736;52.508;13.422;2023-02-15T10:58:41;35.63;;;25.23;;
9392;SDS011;4736;52.508;13.422;2023-02-15T11:01:57;38.17;;;26.37;;
9392;SDS011;4736;52.508;13.422;2023-02-15T11:05:14;40.27;;;26.07;;
9392;SDS011;4736;52.508;13.422;2023-02-15T11:08:25;40.63;;;27.10;;
9392;SDS011;4736;52.508;13.422;2023-02-15T11:11:34;33.70;;;24.63;;
9392;SDS011;4736;52.508;13.422;2023-02-15T11:14:43;35.97;;;26.00;;
9392;SDS011;4736;52.508;13.422;2023-02-15T11:17:51;36.83;;;26.03;;
9392;SDS011;4736;52.508;13.422;2023-02-15T11:20:59;37.70;;;25.80;;
9392;SDS011;4736;52.508;13.422;2023-02-15T11:24:08;34.47;;;24.50;;
9392;SDS011;4736;52.508;13.422;2023-02-15T11:27:16;36.40;;;25.17;;
9392;SDS011;4736;52.508;13.422;2023-02-15T11:30:25;38.47;;;27.03;;
9392;SDS011;4736;52.508;13.422;2023-02-15T11:33:34;34.67;;;25.13;;
9392;SDS011;4736;52.508;13.422;2023-02-15T11:36:40;35.37;;;24.47;;
9392;SDS011;4736;52.508;13.422;2023-02-15T11:39:45;40.43;;;26.07;;
9392;SDS011;4736;52.508;13.422;2023-02-15T11:42:54;31.70;;;23.80;;
9392;SDS011;4736;52.508;13.422;2023-02-15T11:46:00;37.47;;;26.23;;
9392;SDS011;4736;52.508;13.422;2023-02-15T11:49:04;37.53;;;24.87;;
9392;SDS011;4736;52.508;13.422;2023-02-15T11:52:19;32.90;;;24.37;;
9392;SDS011;4736;52.508;13.422;2023-02-15T11:55:23;33.63;;;24.27;;
9392;SDS011;4736;52.508;13.422;2023-02-15T11:58:28;35.47;;;25.07;;
9392;SDS011;4736;52.508;13.422;2023-02-15T12:01:37;34.03;;;24.53;;
9392;SDS011;4736;52.508;13.422;2023-02-15T12:04:46;36.67;;;25.70;;
9392;SDS011;4736;52.508;13.422;2023-02-15T12:07:52;35.97;;;25.30;;
9392;SDS011;4736;52.508;13.422;2023-02-15T12:11:00;35.73;;;25.33;;
9392;SDS011;4736;52.508;13.422;2023-02-15T12:14:13;38.20;;;25.93;;
9392;SDS011;4736;52.508;13.422;2023-02-15T12:17:19;28.27;;;21.47;;
9392;SDS011;4736;52.508;13.422;2023-02-15T12:20:25;30.50;;;22.93;;
9392;SDS011;4736;52.508;13.422;2023-02-15T12:23:32;29.83;;;22.17;;
9392;SDS011;4736;52.508;13.422;2023-02-15T12:26:36;33.30;;;24.40;;
9392;SDS011;4736;52.508;13.422;2023-02-15T12:29:40;33.33;;;24.07;;
9392;SDS011;4736;52.508;13.422;2023-02-15T12:32:49;34.27;;;23.80;;
9392;SDS011;4736;52.508;13.422;2023-02-15T12:35:56;33.43;;;24.57;;
9392;SDS011;4736;52.508;13.422;2023-02-15T12:39:04;31.67;;;22.77;;
9392;SDS011;4736;52.508;13.422;2023-02-15T12:42:18;32.33;;;22.90;;
9392;SDS011;4736;52.508;13.422;2023-02-15T12:45:23;30.57;;;23.03;;
9392;SDS011;4736;52.508;13.422;2023-02-15T12:48:29;31.37;;;23.37;;
9392;SDS011;4736;52.508;13.422;2023-02-15T12:51:33;30.80;;;22.50;;
9392;SDS011;4736;52.508;13.422;2023-02-15T12:54:47;33.30;;;25.10;;
9392;SDS011;4736;52.508;13.422;2023-02-15T12:58:04;32.27;;;24.63;;
9392;SDS011;4736;52.508;13.422;2023-02-15T13:01:18;33.80;;;24.27;;
9392;SDS011;4736;52.508;13.422;2023-02-15T13:04:25;29.37;;;22.43;;
9392;SDS011;4736;52.508;13.422;2023-02-15T13:07:30;33.50;;;25.77;;
9392;SDS011;4736;52.508;13.422;2023-02-15T13:10:35;31.17;;;23.43;;
9392;SDS011;4736;52.508;13.422;2023-02-15T13:13:45;27.23;;;21.77;;
9392;SDS011;4736;52.508;13.422;2023-02-15T13:17:01;28.50;;;21.73;;
9392;SDS011;4736;52.508;13.422;2023-02-15T13:20:14;30.40;;;22.87;;
9392;SDS011;4736;52.508;13.422;2023-02-15T13:23:23;30.47;;;22.77;;
9392;SDS011;4736;52.508;13.422;2023-02-15T13:26:30;35.23;;;23.80;;
9392;SDS011;4736;52.508;13.422;2023-02-15T13:29:36;31.20;;;23.47;;
9392;SDS011;4736;52.508;13.422;2023-02-15T13:32:42;31.33;;;23.63;;
9392;SDS011;4736;52.508;13.422;2023-02-15T13:35:46;27.20;;;20.57;;
9392;SDS011;4736;52.508;13.422;2023-02-15T13:38:58;32.63;;;24.87;;
9392;SDS011;4736;52.508;13.422;2023-02-15T13:42:14;32.93;;;24.23;;
9392;SDS011;4736;52.508;13.422;2023-02-15T13:45:30;29.80;;;24.30;;
9392;SDS011;4736;52.508;13.422;2023-02-15T13:48:41;35.47;;;25.30;;
9392;SDS011;4736;52.508;13.422;2023-02-15T13:51:57;30.00;;;22.70;;
9392;SDS011;4736;52.508;13.422;2023-02-15T13:55:10;27.70;;;22.30;;
9392;SDS011;4736;52.508;13.422;2023-02-15T13:58:33;28.00;;;21.80;;
9392;SDS011;4736;52.508;13.422;2023-02-15T14:02:06;27.60;;;22.07;;
9392;SDS011;4736;52.508;13.422;2023-02-15T14:05:34;27.47;;;21.67;;
9392;SDS011;4736;52.508;13.422;2023-02-15T14:08:54;30.17;;;23.10;;
9392;SDS011;4736;52.508;13.422;2023-02-15T14:12:14;25.83;;;20.30;;
9392;SDS011;4736;52.508;13.422;2023-02-15T14:15:35;25.90;;;21.20;;
9392;SDS011;4736;52.508;13.422;2023-02-15T14:18:47;20.17;;;17.47;;
9392;SDS011;4736;52.508;13.422;2023-02-15T14:21:57;27.87;;;21.50;;
9392;SDS011;4736;52.508;13.422;2023-02-15T14:25:12;23.77;;;18.73;;
9392;SDS011;4736;52.508;13.422;2023-02-15T14:28:22;24.87;;;20.47;;
9392;SDS011;4736;52.508;13.422;2023-02-15T14:31:34;30.77;;;21.33;;
9392;SDS011;4736;52.508;13.422;2023-02-15T14:34:42;23.30;;;19.13;;
9392;SDS011;4736;52.508;13.422;2023-02-15T14:37:50;21.57;;;17.83;;
9392;SDS011;4736;52.508;13.422;2023-02-15T14:41:03;18.13;;;15.53;;
9392;SDS011;4736;52.508;13.422;2023-02-15T14:44:13;19.43;;;15.87;;
9392;SDS011;4736;52.508;13.422;2023-02-15T14:47:22;19.80;;;16.03;;
9392;SDS011;4736;52.508;13.422;2023-02-15T14:50:38;14.73;;;13.13;;
9392;SDS011;4736;52.508;13.422;2023-02-15T14:53:45;24.50;;;20.03;;
9392;SDS011;4736;52.508;13.422;2023-02-15T14:57:20;20.63;;;17.63;;
9392;SDS011;4736;52.508;13.422;2023-02-15T15:00:30;26.57;;;20.30;;
9392;SDS011;4736;52.508;13.422;2023-02-15T15:03:42;24.27;;;20.57;;
9392;SDS011;4736;52.508;13.422;2023-02-15T15:10:33;25.07;;;19.87;;
9392;SDS011;4736;52.508;13.422;2023-02-15T15:13:55;23.20;;;17.57;;
9392;SDS011;4736;52.508;13.422;2023-02-15T15:17:00;23.30;;;19.23;;
9392;SDS011;4736;52.508;13.422;2023-02-15T15:20:10;24.60;;;19.53;;
9392;SDS011;4736;52.508;13.422;2023-02-15T15:26:43;20.87;;;16.10;;
9392;SDS011;4736;52.508;13.422;2023-02-15T15:29:53;18.67;;;15.43;;
9392;SDS011;4736;52.508;13.422;2023-02-15T15:32:57;20.40;;;17.37;;
9392;SDS011;4736;52.508;13.422;2023-02-15T15:40:01;22.03;;;17.17;;
9392;SDS011;4736;52.508;13.422;2023-02-15T15:47:16;17.63;;;14.73;;
9392;SDS011;4736;52.508;13.422;2023-02-15T15:50:34;18.63;;;15.90;;
9392;SDS011;4736;52.508;13.422;2023-02-15T15:53:42;17.07;;;15.27;;
9392;SDS011;4736;52.508;13.422;2023-02-15T15:56:51;20.87;;;16.97;;
9392;SDS011;4736;52.508;13.422;2023-02-15T15:59:56;20.10;;;16.97;;
9392;SDS011;4736;52.508;13.422;2023-02-15T16:03:02;18.63;;;14.90;;
9392;SDS011;4736;52.508;13.422;2023-02-15T16:06:13;17.97;;;15.03;;
9392;SDS011;4736;52.508;13.422;2023-02-15T16:09:17;21.37;;;17.87;;
9392;SDS011;4736;52.508;13.422;2023-02-15T16:12:22;21.07;;;17.60;;
9392;SDS011;4736;52.508;13.422;2023-02-15T16:15:29;22.20;;;17.47;;
9392;SDS011;4736;52.508;13.422;2023-02-15T16:18:39;21.87;;;17.33;;
9392;SDS011;4736;52.508;13.422;2023-02-15T16:21:43;21.97;;;16.90;;
9392;SDS011;4736;52.508;13.422;2023-02-15T16:24:57;23.80;;;17.97;;
9392;SDS011;4736;52.508;13.422;2023-02-15T16:28:12;26.10;;;19.30;;
9392;SDS011;4736;52.508;13.422;2023-02-15T16:31:19;24.63;;;19.03;;
9392;SDS011;4736;52.508;13.422;2023-02-15T16:34:28;24.53;;;18.53;;
9392;SDS011;4736;52.508;13.422;2023-02-15T16:37:34;23.73;;;18.50;;
9392;SDS011;4736;52.508;13.422;2023-02-15T16:40:41;25.37;;;18.20;;
9392;SDS011;4736;52.508;13.422;2023-02-15T16:43:56;21.10;;;16.30;;
9392;SDS011;4736;52.508;13.422;2023-02-15T16:47:03;26.10;;;19.57;;
9392;SDS011;4736;52.508;13.422;2023-02-15T16:50:10;21.77;;;17.23;;
9392;SDS011;4736;52.508;13.422;2023-02-15T16:53:22;25.67;;;19.50;;
9392;SDS011;4736;52.508;13.422;2023-02-15T16:56:27;20.70;;;16.43;;
9392;SDS011;4736;52.508;13.422;2023-02-15T16:59:33;22.27;;;18.10;;
9392;SDS011;4736;52.508;13.422;2023-02-15T17:02:42;24.93;;;19.23;;
9392;SDS011;4736;52.508;13.422;2023-02-15T17:05:59;23.83;;;18.90;;
9392;SDS011;4736;52.508;13.422;2023-02-15T17:09:04;25.90;;;19.33;;
9392;SDS011;4736;52.508;13.422;2023-02-15T17:12:12;24.50;;;19.87;;
9392;SDS011;4736;52.508;13.422;2023-02-15T17:15:35;30.13;;;21.70;;
9392;SDS011;4736;52.508;13.422;2023-02-15T17:18:43;30.87;;;22.00;;
9392;SDS011;4736;52.508;13.422;2023-02-15T17:21:49;27.33;;;20.77;;
9392;SDS011;4736;52.508;13.422;2023-02-15T17:24:58;28.87;;;22.20;;
9392;SDS011;4736;52.508;13.422;2023-02-15T17:28:02;27.63;;;20.20;;
9392;SDS011;4736;52.508;13.422;2023-02-15T17:31:07;30.10;;;20.83;;
9392;SDS011;4736;52.508;13.422;2023-02-15T17:34:10;27.40;;;19.43;;
9392;SDS011;4736;52.508;13.422;2023-02-15T17:37:46;28.33;;;19.37;;
9392;SDS011;4736;52.508;13.422;2023-02-15T17:40:50;26.67;;;20.63;;
9392;SDS011;4736;52.508;13.422;2023-02-15T17:43:53;26.67;;;20.43;;
9392;SDS011;4736;52.508;13.422;2023-02-15T17:46:56;31.10;;;20.60;;
9392;SDS011;4736;52.508;13.422;2023-02-15T17:50:00;32.10;;;21.90;;
9392;SDS011;4736;52.508;13.422;2023-02-15T17:53:08;37.23;;;26.00;;
9392;SDS011;4736;52.508;13.422;2023-02-15T17:56:12;32.90;;;23.97;;
9392;SDS011;4736;52.508;13.422;2023-02-15T17:59:18;33.07;;;24.30;;
9392;SDS011;4736;52.508;13.422;2023-02-15T18:02:22;32.27;;;22.57;;
9392;SDS011;4736;52.508;13.422;2023-02-15T18:05:43;33.80;;;24.10;;
9392;SDS011;4736;52.508;13.422;2023-02-15T18:09:04;33.03;;;24.03;;
9392;SDS011;4736;52.508;13.422;2023-02-15T18:12:28;37.60;;;25.53;;
9392;SDS011;4736;52.508;13.422;2023-02-15T18:15:32;43.03;;;27.50;;
9392;SDS011;4736;52.508;13.422;2023-02-15T18:18:36;42.40;;;29.50;;
9392;SDS011;4736;52.508;13.422;2023-02-15T18:21:39;41.63;;;29.33;;
9392;SDS011;4736;52.508;13.422;2023-02-15T18:24:45;50.30;;;31.37;;
9392;SDS011;4736;52.508;13.422;2023-02-15T18:27:49;50.47;;;30.93;;
9392;SDS011;4736;52.508;13.422;2023-02-15T19:31:35;43.10;;;27.53;;
9392;SDS011;4736;52.508;13.422;2023-02-15T19:34:39;39.80;;;26.37;;
9392;SDS011;4736;52.508;13.422;2023-02-15T19:37:43;40.80;;;27.47;;
9392;SDS011;4736;52.508;13.422;2023-02-15T19:40:50;46.27;;;29.97;;
9392;SDS011;4736;52.508;13.422;2023-02-15T19:43:54;35.90;;;26.17;;
9392;SDS011;4736;52.508;13.422;2023-02-15T19:47:00;37.23;;;25.77;;
9392;SDS011;4736;52.508;13.422;2023-02-15T19:50:04;38.17;;;26.07;;
9392;SDS011;4736;52.508;13.422;2023-02-15T19:53:14;34.70;;;25.30;;
9392;SDS011;4736;52.508;13.422;2023-02-15T19:56:28;36.03;;;25.27;;
9392;SDS011;4736;52.508;13.422;2023-02-15T19:59:31;38.73;;;26.87;;
9392;SDS011;4736;52.508;13.422;2023-02-15T20:02:43;38.80;;;26.43;;
9392;SDS011;4736;52.508;13.422;2023-02-15T20:06:12;33.23;;;24.53;;